KMLS/MLS METAR and TAF weather

Enter ICAO airport designator
Station Type Date Time Source
KMLS METAR 2021/03/01 02:53 UTC NOAA

KMLS 010253Z AUTO 29007KT 10SM CLR M01/M08 A2999 RMK AO2 SLP185 T10061078 51020


Station Type Date Time Source
KMLS Decoded METAR 2021/03/01 02:53 UTC NOAA

MILES CITY WILEY FIELD, MT, United States (KMLS) 46-26N 105-53W 801M
Feb 28, 2021 - 09:53 PM EST / 2021.03.01 0253 UTC
Wind: from the WNW (290 degrees) at 8 MPH (7 KT):0
Visibility: 10 mile(s):0
Sky conditions: clear
Temperature: 30.9 F (-0.6 C)
Windchill: 23 F (-5 C):1
Dew Point: 18.0 F (-7.8 C)
Relative Humidity: 58%
Pressure (altimeter): 29.99 in. Hg (1015 hPa)
Pressure tendency: 0.06 inches (2.0 hPa) higher than three hours ago
ob: KMLS 010253Z AUTO 29007KT 10SM CLR M01/M08 A2999 RMK AO2 SLP185 T10061078 51020
cycle: 3

Station Type Date Time Source
KMLS TAF 2021/02/28 18:24 UTC NOAA

TAF KMLS 281722Z 2818/0118 26014KT P6SM FEW200
FM282000 26017G24KT P6SM FEW200
FM010000 27010KT P6SM SCT200
FM011500 24012KT P6SM FEW200

Example: see airport list